This is the latest recevied weather packets stored in our database for station/object VU3OPX-13. If no packets are shown the sender has not sent any weather packets the latest 10 day(s).
| Time | Temp. | Humidity | Pressure | Rain* | Wind** | Luminosity | Snow |
|---|---|---|---|---|---|---|---|
| 1787760553 | 22.22° C | 91% | 1013 hPa | 0 mm | - | - | - |
| 1787758767 | 22.22° C | 91% | 1013 hPa | 0 mm | - | - | - |
| 1787756979 | 22.78° C | 89% | 1012 hPa | 0 mm | - | - | - |
| 1787755192 | 22.78° C | 89% | 1012 hPa | 0 mm | - | - | - |
| 1787753405 | 23.33° C | 87% | 1011 hPa | 0 mm | - | - | - |
| 1787751617 | 23.33° C | 87% | 1011 hPa | 0 mm | - | - | - |
| 1787749830 | 24.44° C | 84% | 1010 hPa | 0 mm | - | - | - |
| 1787748043 | 24.44° C | 84% | 1010 hPa | 0 mm | - | - | - |
| 1787746255 | 25.56° C | 78% | 1009 hPa | 0 mm | - | - | - |
| 1787744468 | 25.56° C | 78% | 1009 hPa | 0 mm | - | - | - |
| 1787742681 | 26.11° C | 75% | 1009 hPa | 0 mm | - | - | - |
| 1787740893 | 26.11° C | 74% | 1009 hPa | 0 mm | - | - | - |
| 1787739106 | 26.67° C | 73% | 1009 hPa | 0 mm | - | - | - |
| 1787737317 | 26.67° C | 73% | 1009 hPa | 0 mm | - | - | - |
| 1787735530 | 27.22° C | 71% | 1009 hPa | 0 mm | - | - | - |
| 1787733742 | 27.22° C | 70% | 1009 hPa | 0 mm | - | - | - |
| 1787731954 | 27.22° C | 68% | 1010 hPa | 0 mm | - | - | - |
| 1787730167 | 27.22° C | 69% | 1010 hPa | 0 mm | - | - | - |
| 1787728380 | 27.22° C | 69% | 1011 hPa | 0 mm | - | - | - |
| 1787726592 | 27.22° C | 68% | 1011 hPa | 0 mm | - | - | - |
| 1787724805 | 27.22° C | 68% | 1012 hPa | 0 mm | - | - | - |
| 1787723018 | 27.22° C | 69% | 1012 hPa | 0 mm | - | - | - |
| 1787721231 | 26.67° C | 72% | 1012 hPa | 0 mm | - | - | - |
| 1787719443 | 26.67° C | 71% | 1012 hPa | 0 mm | - | - | - |
| 1787717656 | 25.56° C | 75% | 1012 hPa | 0 mm | - | - | - |
* Rain latest hour (hover to see other rain measurements)
** Current wind speed in m/s (hover to see current wind gust speed)